Time,TemperatureF,DewpointF,PressureIn,WindDirection,WindDirectionDegrees,WindSpeedMPH,WindSpeedGustMPH,Humidity,HourlyPrecipIn,Conditions,Clouds,dailyrainin,SoftwareType,DateUTC
2013-01-14 00:14:00,35.6,9.0,30.21,NNW,346,3.0,6.0,33,0.00,,,0.00,weatherlink.com 1.10,2013-01-14 08:14:00,
2013-01-14 00:29:00,35.5,10.0,30.22,NNE,32,2.0,9.0,34,0.00,,,0.00,weatherlink.com 1.10,2013-01-14 08:29:00,
2013-01-14 00:44:00,35.1,9.0,30.22,NNE,30,6.0,9.0,34,0.00,,,0.00,weatherlink.com 1.10,2013-01-14 08:44:00,
2013-01-14 00:59:00,34.8,10.0,30.23,North,350,4.0,9.0,35,0.00,,,0.00,weatherlink.com 1.10,2013-01-14 08:59:00,
2013-01-14 01:14:00,35.1,9.0,30.23,ESE,107,2.0,9.0,34,0.00,,,0.00,weatherlink.com 1.10,2013-01-14 09:14:00,
2013-01-14 01:29:00,34.9,9.0,30.23,NNW,339,1.0,9.0,34,0.00,,,0.00,weatherlink.com 1.10,2013-01-14 09:29:00,
2013-01-14 01:44:00,34.9,9.0,30.24,NNW,345,1.0,7.0,34,0.00,,,0.00,weatherlink.com 1.10,2013-01-14 09:44:00,
2013-01-14 01:59:00,33.8,10.0,30.25,ENE,70,0.0,4.0,37,0.00,,,0.00,weatherlink.com 1.10,2013-01-14 09:59:00,
2013-01-14 02:14:00,33.2,9.0,30.24,WNW,297,2.0,9.0,37,0.00,,,0.00,weatherlink.com 1.10,2013-01-14 10:14:00,
2013-01-14 02:29:00,35.2,9.0,30.24,NE,43,3.0,10.0,33,0.00,,,0.00,weatherlink.com 1.10,2013-01-14 10:29:00,
2013-01-14 02:44:00,35.6,9.0,30.24,North,358,7.0,12.0,33,0.00,,,0.00,weatherlink.com 1.10,2013-01-14 10:44:00,
2013-01-14 02:59:00,35.6,8.0,30.25,SE,132,2.0,9.0,32,0.00,,,0.00,weatherlink.com 1.10,2013-01-14 10:59:00,
2013-01-14 03:15:00,35.4,9.0,30.25,West,279,3.0,8.0,33,0.00,,,0.00,weatherlink.com 1.10,2013-01-14 11:15:00,
2013-01-14 03:30:00,35.3,8.0,30.25,West,270,3.0,10.0,32,0.00,,,0.00,weatherlink.com 1.10,2013-01-14 11:30:00,
2013-01-14 03:45:00,35.4,8.0,30.24,SE,141,2.0,6.0,32,0.00,,,0.00,weatherlink.com 1.10,2013-01-14 11:45:00,
2013-01-14 04:00:00,35.3,8.0,30.25,North,5,3.0,10.0,32,0.00,,,0.00,weatherlink.com 1.10,2013-01-14 12:00:00,
2013-01-14 04:15:00,35.5,7.0,30.25,NNW,341,6.0,9.0,31,0.00,,,0.00,weatherlink.com 1.10,2013-01-14 12:15:00,
2013-01-14 04:30:00,35.2,8.0,30.25,ENE,74,3.0,8.0,32,0.00,,,0.00,weatherlink.com 1.10,2013-01-14 12:30:00,
2013-01-14 04:45:00,34.9,8.0,30.25,East,99,0.0,7.0,33,0.00,,,0.00,weatherlink.com 1.10,2013-01-14 12:45:00,
2013-01-14 05:00:00,34.2,8.0,30.25,North,4,3.0,6.0,33,0.00,,,0.00,weatherlink.com 1.10,2013-01-14 13:00:00,
2013-01-14 05:15:00,34.3,8.0,30.25,NNE,27,3.0,9.0,33,0.00,,,0.00,weatherlink.com 1.10,2013-01-14 13:15:00,
2013-01-14 05:30:00,34.0,8.0,30.25,East,89,3.0,5.0,34,0.00,,,0.00,weatherlink.com 1.10,2013-01-14 13:30:00,
2013-01-14 05:45:00,34.8,8.0,30.26,North,1,1.0,14.0,32,0.00,,,0.00,weatherlink.com 1.10,2013-01-14 13:45:00,
2013-01-14 06:00:00,35.2,8.0,30.28,West,266,1.0,14.0,32,0.00,,,0.00,weatherlink.com 1.10,2013-01-14 14:00:00,
2013-01-14 06:15:00,35.2,8.0,30.29,ESE,111,3.0,10.0,32,0.00,,,0.00,weatherlink.com 1.10,2013-01-14 14:15:00,
2013-01-14 06:30:00,35.3,8.0,30.30,East,88,2.0,9.0,32,0.00,,,0.00,weatherlink.com 1.10,2013-01-14 14:30:00,
2013-01-14 06:45:00,35.1,7.0,30.30,West,267,3.0,10.0,31,0.00,,,0.00,weatherlink.com 1.10,2013-01-14 14:45:00,
2013-01-14 07:00:00,35.1,7.0,30.31,North,354,2.0,7.0,31,0.00,,,0.00,weatherlink.com 1.10,2013-01-14 15:00:00,
2013-01-14 07:15:00,35.2,7.0,30.31,North,349,1.0,7.0,31,0.00,,,0.00,weatherlink.com 1.10,2013-01-14 15:15:00,
2013-01-14 07:30:00,35.7,7.0,30.31,ESE,120,3.0,9.0,30,0.00,,,0.00,weatherlink.com 1.10,2013-01-14 15:30:00,
2013-01-14 07:45:00,35.7,8.0,30.32,NNW,329,2.0,6.0,32,0.00,,,0.00,weatherlink.com 1.10,2013-01-14 15:45:00,
2013-01-14 08:00:00,36.1,7.0,30.32,SW,226,0.0,5.0,30,0.00,,,0.00,weatherlink.com 1.10,2013-01-14 16:00:00,
2013-01-14 08:15:00,37.6,7.0,30.33,WSW,253,2.0,7.0,28,0.00,,,0.00,weatherlink.com 1.10,2013-01-14 16:15:00,
2013-01-14 08:30:00,38.7,6.0,30.33,WNW,302,0.0,9.0,26,0.00,,,0.00,weatherlink.com 1.10,2013-01-14 16:30:00,
2013-01-14 08:45:00,39.6,8.0,30.33,South,171,0.0,3.0,27,0.00,,,0.00,weatherlink.com 1.10,2013-01-14 16:45:00,
2013-01-14 09:00:00,40.4,6.0,30.34,ENE,77,1.0,5.0,24,0.00,,,0.00,weatherlink.com 1.10,2013-01-14 17:00:00,
2013-01-14 09:15:00,41.3,8.0,30.34,East,84,2.0,6.0,25,0.00,,,0.00,weatherlink.com 1.10,2013-01-14 17:15:00,
2013-01-14 09:30:00,41.9,8.0,30.35,ENE,58,3.0,7.0,25,0.00,,,0.00,weatherlink.com 1.10,2013-01-14 17:30:00,
2013-01-14 09:45:00,43.7,7.0,30.35,SSE,156,1.0,5.0,22,0.00,,,0.00,weatherlink.com 1.10,2013-01-14 17:45:00,
2013-01-14 10:01:00,44.9,9.0,30.35,ENE,61,2.0,7.0,23,0.00,,,0.00,weatherlink.com 1.10,2013-01-14 18:01:00,
2013-01-14 10:16:00,45.1,8.0,30.36,North,6,2.0,4.0,22,0.00,,,0.00,weatherlink.com 1.10,2013-01-14 18:16:00,
2013-01-14 10:31:00,45.6,10.0,30.36,SE,132,0.0,4.0,23,0.00,,,0.00,weatherlink.com 1.10,2013-01-14 18:31:00,
2013-01-14 10:46:00,45.7,9.0,30.36,East,95,2.0,6.0,22,0.00,,,0.00,weatherlink.com 1.10,2013-01-14 18:46:00,
2013-01-14 11:01:00,45.3,10.0,30.36,NNE,26,0.0,7.0,24,0.00,,,0.00,weatherlink.com 1.10,2013-01-14 19:01:00,
2013-01-14 11:16:00,46.3,10.0,30.35,East,82,0.0,3.0,23,0.00,,,0.00,weatherlink.com 1.10,2013-01-14 19:16:00,
2013-01-14 11:31:00,47.4,10.0,30.35,South,172,0.0,3.0,22,0.00,,,0.00,weatherlink.com 1.10,2013-01-14 19:31:00,
2013-01-14 11:46:00,46.3,9.0,30.34,ENE,67,2.0,7.0,22,0.00,,,0.00,weatherlink.com 1.10,2013-01-14 19:46:00,
2013-01-14 12:01:00,47.1,11.0,30.33,NNW,341,3.0,6.0,23,0.00,,,0.00,weatherlink.com 1.10,2013-01-14 20:01:00,
2013-01-14 12:16:00,47.2,10.0,30.32,NW,325,1.0,5.0,22,0.00,,,0.00,weatherlink.com 1.10,2013-01-14 20:16:00,
2013-01-14 12:31:00,47.8,11.0,30.32,NNE,26,2.0,4.0,23,0.00,,,0.00,weatherlink.com 1.10,2013-01-14 20:31:00,
2013-01-14 12:46:00,48.4,11.0,30.32,NNW,330,2.0,5.0,22,0.00,,,0.00,weatherlink.com 1.10,2013-01-14 20:46:00,
2013-01-14 13:01:00,48.9,14.0,30.31,East,99,1.0,3.0,25,0.00,,,0.00,weatherlink.com 1.10,2013-01-14 21:01:00,
2013-01-14 13:16:00,49.3,12.0,30.32,ENE,73,0.0,3.0,22,0.00,,,0.00,weatherlink.com 1.10,2013-01-14 21:16:00,
2013-01-14 13:31:00,50.0,15.0,30.32,WNW,293,3.0,7.0,25,0.00,,,0.00,weatherlink.com 1.10,2013-01-14 21:31:00,
2013-01-14 13:46:00,49.5,14.0,30.32,East,90,0.0,6.0,24,0.00,,,0.00,weatherlink.com 1.10,2013-01-14 21:46:00,
2013-01-14 14:01:00,49.3,15.0,30.32,North,352,3.0,3.0,25,0.00,,,0.00,weatherlink.com 1.10,2013-01-14 22:01:00,
2013-01-14 14:16:00,49.0,15.0,30.32,NW,321,1.0,5.0,26,0.00,,,0.00,weatherlink.com 1.10,2013-01-14 22:16:00,
2013-01-14 14:31:00,48.8,16.0,30.33,ENE,64,0.0,4.0,27,0.00,,,0.00,weatherlink.com 1.10,2013-01-14 22:31:00,
2013-01-14 14:46:00,48.7,16.0,30.34,NNW,327,1.0,4.0,27,0.00,,,0.00,weatherlink.com 1.10,2013-01-14 22:46:00,
2013-01-14 15:01:00,48.3,16.0,30.34,SSE,148,0.0,4.0,27,0.00,,,0.00,weatherlink.com 1.10,2013-01-14 23:01:00,
2013-01-14 15:16:00,48.0,18.0,30.34,ESE,117,0.0,2.0,30,0.00,,,0.00,weatherlink.com 1.10,2013-01-14 23:16:00,
2013-01-14 15:31:00,47.6,18.0,30.34,NNE,15,0.0,3.0,31,0.00,,,0.00,weatherlink.com 1.10,2013-01-14 23:31:00,
2013-01-14 15:46:00,47.1,17.0,30.34,ESE,104,1.0,1.0,30,0.00,,,0.00,weatherlink.com 1.10,2013-01-14 23:46:00,
2013-01-14 16:01:00,46.1,18.0,30.34,East,100,0.0,1.0,33,0.00,,,0.00,weatherlink.com 1.10,2013-01-15 00:01:00,
2013-01-14 16:16:00,45.1,19.0,30.34,ESE,102,0.0,0.0,35,0.00,,,0.00,weatherlink.com 1.10,2013-01-15 00:16:00,
2013-01-14 16:31:00,44.5,18.0,30.35,East,101,0.0,0.0,35,0.00,,,0.00,weatherlink.com 1.10,2013-01-15 00:31:00,
2013-01-14 16:46:00,43.7,18.0,30.35,East,101,0.0,0.0,36,0.00,,,0.00,weatherlink.com 1.10,2013-01-15 00:46:00,
2013-01-14 17:01:00,42.5,18.0,30.34,ESE,102,0.0,0.0,38,0.00,,,0.00,weatherlink.com 1.10,2013-01-15 01:01:00,
2013-01-14 17:16:00,42.0,17.0,30.34,East,101,0.0,0.0,37,0.00,,,0.00,weatherlink.com 1.10,2013-01-15 01:16:00,
2013-01-14 17:31:00,41.2,18.0,30.35,ESE,102,0.0,0.0,39,0.00,,,0.00,weatherlink.com 1.10,2013-01-15 01:31:00,
2013-01-14 17:46:00,40.9,17.0,30.35,East,101,0.0,0.0,38,0.00,,,0.00,weatherlink.com 1.10,2013-01-15 01:46:00,
2013-01-14 18:01:00,40.5,17.0,30.34,East,101,0.0,0.0,38,0.00,,,0.00,weatherlink.com 1.10,2013-01-15 02:01:00,
2013-01-14 18:16:00,40.4,16.0,30.34,SW,224,0.0,1.0,38,0.00,,,0.00,weatherlink.com 1.10,2013-01-15 02:16:00,
2013-01-14 18:31:00,39.9,16.0,30.34,SSW,195,0.0,0.0,38,0.00,,,0.00,weatherlink.com 1.10,2013-01-15 02:31:00,
2013-01-14 18:46:00,39.7,16.0,30.34,SSW,210,0.0,0.0,39,0.00,,,0.00,weatherlink.com 1.10,2013-01-15 02:46:00,
2013-01-14 19:01:00,39.7,16.0,30.34,SSW,198,0.0,2.0,39,0.00,,,0.00,weatherlink.com 1.10,2013-01-15 03:01:00,
2013-01-14 19:16:00,39.5,16.0,30.34,WSW,243,0.0,1.0,39,0.00,,,0.00,weatherlink.com 1.10,2013-01-15 03:16:00,
2013-01-14 19:31:00,39.5,16.0,30.34,West,264,0.0,0.0,39,0.00,,,0.00,weatherlink.com 1.10,2013-01-15 03:31:00,
2013-01-14 19:46:00,39.9,17.0,30.35,SSW,210,0.0,0.0,39,0.00,,,0.00,weatherlink.com 1.10,2013-01-15 03:46:00,
2013-01-14 20:16:00,38.3,17.0,30.35,South,176,1.0,2.0,42,0.00,,,0.00,weatherlink.com 1.10,2013-01-15 04:16:00,
2013-01-14 20:31:00,39.2,17.0,30.35,WSW,248,0.0,3.0,40,0.00,,,0.00,weatherlink.com 1.10,2013-01-15 04:31:00,
2013-01-14 20:46:00,40.3,16.0,30.34,SSW,208,1.0,2.0,37,0.00,,,0.00,weatherlink.com 1.10,2013-01-15 04:46:00,
2013-01-14 21:01:00,40.1,16.0,30.35,WSW,248,1.0,2.0,37,0.00,,,0.00,weatherlink.com 1.10,2013-01-15 05:01:00,
2013-01-14 21:16:00,39.4,16.0,30.35,WSW,245,1.0,2.0,39,0.00,,,0.00,weatherlink.com 1.10,2013-01-15 05:16:00,
2013-01-14 21:31:00,39.0,16.0,30.35,West,271,0.0,1.0,39,0.00,,,0.00,weatherlink.com 1.10,2013-01-15 05:31:00,
2013-01-14 21:46:00,38.9,16.0,30.35,SSW,200,0.0,1.0,39,0.00,,,0.00,weatherlink.com 1.10,2013-01-15 05:46:00,
2013-01-14 22:01:00,38.5,16.0,30.35,West,259,1.0,2.0,40,0.00,,,0.00,weatherlink.com 1.10,2013-01-15 06:01:00,
2013-01-14 22:16:00,37.9,17.0,30.35,WSW,256,0.0,1.0,42,0.00,,,0.00,weatherlink.com 1.10,2013-01-15 06:16:00,
2013-01-14 22:31:00,37.7,17.0,30.35,SW,226,1.0,1.0,44,0.00,,,0.00,weatherlink.com 1.10,2013-01-15 06:31:00,
2013-01-14 22:46:00,37.1,18.0,30.35,SW,224,1.0,1.0,46,0.00,,,0.00,weatherlink.com 1.10,2013-01-15 06:46:00,
2013-01-14 23:01:00,36.5,18.0,30.36,SSE,158,0.0,0.0,48,0.00,,,0.00,weatherlink.com 1.10,2013-01-15 07:01:00,
2013-01-14 23:16:00,36.3,19.0,30.36,SSE,158,0.0,1.0,50,0.00,,,0.00,weatherlink.com 1.10,2013-01-15 07:16:00,
2013-01-14 23:31:00,36.4,20.0,30.36,SSE,158,0.0,0.0,51,0.00,,,0.00,weatherlink.com 1.10,2013-01-15 07:31:00,
2013-01-14 23:47:00,36.5,19.0,30.36,SSE,158,0.0,0.0,50,0.00,,,0.00,weatherlink.com 1.10,2013-01-15 07:47:00,